Time;durP1;ratioP1;P1;durP2;ratioP2;P2;SDS_P1;SDS_P2;PMS_P1;PMS_P2;Temp;Humidity;BMP_temperature;BMP_pressure;BME280_temperature;BME280_humidity;BME280_pressure;Samples;Min_cycle;Max_cycle;Signal;HPM_P1;HPM_P2
2023/05/21 00:00:36;;;;;;;16.50;11.18;;;;;;;;;;6156171;23;20013;-88
2023/05/21 00:03:02;;;;;;;17.05;11.63;;;;;;;;;;6157183;23;20010;-86
2023/05/21 00:05:28;;;;;;;15.52;11.23;;;;;;;;;;6157962;23;20002;-87
2023/05/21 00:07:54;;;;;;;21.08;11.30;;;;;;;;;;6157732;23;20010;-84
2023/05/21 00:10:20;;;;;;;15.77;10.30;;;;;;;;;;6155157;23;20020;-89
2023/05/21 00:12:46;;;;;;;16.17;11.23;;;;;;;;;;6155583;23;20001;-86
2023/05/21 00:15:12;;;;;;;15.45;10.93;;;;;;;;;;6159883;23;20006;-90
2023/05/21 00:17:38;;;;;;;15.32;11.25;;;;;;;;;;6167280;23;20009;-87
2023/05/21 00:20:06;;;;;;;16.98;11.63;;;;;;;;;;6165141;23;20085;-90
2023/05/21 00:22:35;;;;;;;14.75;11.07;;;;;;;;;;6159339;23;20009;-87
2023/05/21 00:25:01;;;;;;;15.75;11.10;;;;;;;;;;6156570;23;20289;-86
2023/05/21 00:27:27;;;;;;;16.10;11.43;;;;;;;;;;6155573;23;19998;-88
2023/05/21 00:29:53;;;;;;;15.05;11.20;;;;;;;;;;6166666;23;20037;-88
2023/05/21 00:32:19;;;;;;;14.63;10.88;;;;;;;;;;6181896;23;20005;-89
2023/05/21 00:34:45;;;;;;;15.52;11.15;;;;;;;;;;6182137;23;19993;-88
2023/05/21 00:37:14;;;;;;;14.93;10.90;;;;;;;;;;6180465;23;20010;-87
2023/05/21 00:39:39;;;;;;;17.35;11.57;;;;;;;;;;6174523;23;20026;-87
2023/05/21 00:42:05;;;;;;;16.63;11.32;;;;;;;;;;6160390;23;20013;-86
2023/05/21 00:44:33;;;;;;;14.75;11.00;;;;;;;;;;6154023;23;20061;-87
2023/05/21 00:47:02;;;;;;;16.98;11.93;;;;;;;;;;6160643;23;20033;-83
2023/05/21 00:49:28;;;;;;;16.63;11.85;;;;;;;;;;6156466;23;20013;-88
2023/05/21 00:51:55;;;;;;;17.73;12.10;;;;;;;;;;6164449;23;20009;-83
2023/05/21 00:54:21;;;;;;;16.80;12.85;;;;;;;;;;6173498;23;20001;-83
2023/05/21 00:56:47;;;;;;;16.80;12.07;;;;;;;;;;6170101;23;20063;-83
2023/05/21 00:59:15;;;;;;;16.23;11.70;;;;;;;;;;6173066;23;20005;-85
2023/05/21 01:01:44;;;;;;;15.35;11.57;;;;;;;;;;6172749;23;20061;-86
2023/05/21 01:04:10;;;;;;;16.77;11.85;;;;;;;;;;6170190;23;20006;-86
2023/05/21 01:06:36;;;;;;;16.40;12.30;;;;;;;;;;6159631;23;20005;-85
2023/05/21 01:09:04;;;;;;;16.10;12.32;;;16.60;99.90;;;;;;6161321;23;20006;-88
2023/05/21 01:11:37;;;;;;;21.45;11.90;;;;;;;;;;6155396;23;20005;-85
2023/05/21 01:14:04;;;;;;;17.35;11.73;;;;;;;;;;6153381;23;20009;-86
2023/05/21 01:16:31;;;;;;;19.83;12.68;;;;;;;;;;6152208;23;20473;-87
2023/05/21 01:18:58;;;;;;;16.65;11.82;;;;;;;;;;6154448;23;20005;-86
2023/05/21 01:21:24;;;;;;;16.67;12.00;;;;;;;;;;6154961;23;20327;-86
2023/05/21 01:23:50;;;;;;;15.30;11.57;;;;;;;;;;6152660;23;20002;-88
2023/05/21 01:26:17;;;;;;;16.48;12.35;;;;;;;;;;6152518;23;20333;-87
2023/05/21 01:28:43;;;;;;;16.27;11.63;;;;;;;;;;6154321;23;19998;-86
2023/05/21 01:31:16;;;;;;;16.95;11.77;;;;;;;;;;6151971;23;20449;-88
2023/05/21 01:33:47;;;;;;;15.40;12.65;;;;;;;;;;6153707;23;20327;-86
2023/05/21 01:36:20;;;;;;;17.33;11.35;;;;;;;;;;6153345;23;20453;-86
2023/05/21 01:39:08;;;;;;;18.52;12.43;;;16.60;99.90;;;;;;6153274;23;20412;-88
2023/05/21 01:41:36;;;;;;;17.90;12.45;;;;;;;;;;6154550;23;20009;-88
2023/05/21 01:44:04;;;;;;;16.75;12.02;;;16.70;99.90;;;;;;6155463;23;20005;-86
2023/05/21 01:46:31;;;;;;;19.73;12.77;;;;;;;;;;6154322;23;20446;-87
2023/05/21 01:48:57;;;;;;;19.38;14.18;;;;;;;;;;6156143;23;20017;-86
2023/05/21 01:51:24;;;;;;;19.20;13.07;;;;;;;;;;6154716;23;20072;-85
2023/05/21 01:53:50;;;;;;;21.45;12.23;;;;;;;;;;6156219;23;20006;-83
2023/05/21 01:56:16;;;;;;;17.20;12.13;;;;;;;;;;6155216;23;20010;-86
2023/05/21 01:58:42;;;;;;;14.75;11.40;;;;;;;;;;6157995;23;20001;-87
2023/05/21 02:01:11;;;;;;;17.95;13.00;;;;;;;;;;6161667;23;20005;-87
2023/05/21 02:03:37;;;;;;;18.88;12.73;;;;;;;;;;6174500;23;19990;-84
2023/05/21 02:06:04;;;;;;;16.63;11.52;;;;;;;;;;6172888;23;20017;-85
2023/05/21 02:08:30;;;;;;;18.80;13.00;;;;;;;;;;6149916;23;20005;-85
2023/05/21 02:10:56;;;;;;;17.48;12.50;;;;;;;;;;6172618;23;20013;-84
2023/05/21 02:13:23;;;;;;;16.70;12.95;;;;;;;;;;6157198;23;20033;-86
2023/05/21 02:15:53;;;;;;;15.57;12.45;;;;;;;;;;6158734;23;20001;-88
2023/05/21 02:18:20;;;;;;;16.58;13.00;;;;;;;;;;6158623;23;20001;-88
2023/05/21 02:20:46;;;;;;;17.20;12.55;;;;;;;;;;6158165;23;20021;-83
2023/05/21 02:23:12;;;;;;;17.67;12.55;;;;;;;;;;6155551;23;20009;-88
2023/05/21 02:25:38;;;;;;;14.80;11.80;;;;;;;;;;6161418;23;20062;-87
2023/05/21 02:28:05;;;;;;;16.17;12.45;;;;;;;;;;6167341;23;19997;-87
2023/05/21 02:30:31;;;;;;;17.63;12.65;;;;;;;;;;6161614;23;20009;-85
2023/05/21 02:32:57;;;;;;;18.42;13.23;;;;;;;;;;6157672;23;20005;-87
2023/05/21 02:35:23;;;;;;;17.20;12.52;;;;;;;;;;6155375;23;20459;-88
2023/05/21 02:37:49;;;;;;;16.88;13.10;;;;;;;;;;6152091;23;20039;-84
2023/05/21 02:40:16;;;;;;;18.50;12.75;;;;;;;;;;6154600;23;20014;-86
2023/05/21 02:42:42;;;;;;;18.25;13.15;;;;;;;;;;6153982;23;20059;-84
2023/05/21 02:45:09;;;;;;;18.58;13.32;;;16.40;99.90;;;;;;6157051;23;20028;-85
2023/05/21 02:47:35;;;;;;;19.73;13.40;;;;;;;;;;6154784;23;20009;-87
2023/05/21 02:50:01;;;;;;;19.17;13.60;;;;;;;;;;6156559;23;20582;-87
2023/05/21 02:52:27;;;;;;;18.48;13.00;;;;;;;;;;6157176;23;20073;-88
2023/05/21 02:54:53;;;;;;;17.10;12.48;;;;;;;;;;6154728;23;20353;-85
2023/05/21 02:57:19;;;;;;;20.42;14.07;;;;;;;;;;6155212;23;20005;-88
2023/05/21 02:59:45;;;;;;;18.63;13.30;;;;;;;;;;6156419;23;20009;-85
2023/05/21 03:02:11;;;;;;;17.90;13.35;;;;;;;;;;6153435;23;20009;-88
2023/05/21 03:04:44;;;;;;;18.77;12.80;;;;;;;;;;6155703;23;20052;-87
2023/05/21 03:07:12;;;;;;;17.20;13.18;;;;;;;;;;6153590;23;20001;-86
2023/05/21 03:09:38;;;;;;;18.35;13.15;;;;;;;;;;6155968;23;20032;-89
2023/05/21 03:12:05;;;;;;;21.80;13.55;;;;;;;;;;6156297;23;19997;-85
2023/05/21 03:14:31;;;;;;;21.60;13.23;;;;;;;;;;6156379;23;20010;-88
2023/05/21 03:16:57;;;;;;;17.30;12.40;;;;;;;;;;6156727;23;20014;-87
2023/05/21 03:19:23;;;;;;;20.52;13.10;;;;;;;;;;6157672;23;20462;-87
2023/05/21 03:21:49;;;;;;;16.63;13.13;;;;;;;;;;6156202;23;20001;-85
2023/05/21 03:24:16;;;;;;;20.38;13.60;;;;;;;;;;6158611;23;20002;-88
2023/05/21 03:26:42;;;;;;;18.75;12.98;;;;;;;;;;6156190;23;20002;-86
2023/05/21 03:29:08;;;;;;;17.92;13.50;;;;;;;;;;6157129;23;20002;-88
2023/05/21 03:31:34;;;;;;;17.63;12.27;;;;;;;;;;6156697;23;20009;-86
2023/05/21 03:34:00;;;;;;;18.05;12.30;;;;;;;;;;6132229;23;20049;-87
2023/05/21 03:36:26;;;;;;;18.45;12.40;;;;;;;;;;6158559;23;20005;-86
2023/05/21 03:38:52;;;;;;;15.40;11.90;;;;;;;;;;6158217;23;20012;-87
2023/05/21 03:41:18;;;;;;;18.02;13.38;;;;;;;;;;6158560;23;20002;-86
2023/05/21 03:43:44;;;;;;;16.48;12.60;;;;;;;;;;6159362;23;20299;-87
2023/05/21 03:46:10;;;;;;;18.05;13.05;;;;;;;;;;6157430;23;20326;-87
2023/05/21 03:48:36;;;;;;;17.40;12.70;;;;;;;;;;6157839;23;20048;-87
2023/05/21 03:51:02;;;;;;;18.48;12.63;;;;;;;;;;6156586;23;20032;-86
2023/05/21 03:53:28;;;;;;;19.30;12.73;;;;;;;;;;6158299;23;20039;-87
2023/05/21 03:55:54;;;;;;;16.75;12.27;;;;;;;;;;6160174;23;20002;-86
2023/05/21 03:58:23;;;;;;;16.50;12.43;;;;;;;;;;6159779;23;20009;-85
2023/05/21 04:03:20;;;;;;;18.65;12.02;;;;;;;;;;6154370;23;20024;-85
2023/05/21 04:05:47;;;;;;;17.55;12.90;;;;;;;;;;6154562;23;20001;-85
2023/05/21 04:08:13;;;;;;;20.50;12.95;;;;;;;;;;6157046;23;20013;-86
2023/05/21 04:10:39;;;;;;;22.73;14.32;;;;;;;;;;6158194;23;20029;-85
2023/05/21 04:13:05;;;;;;;19.60;13.10;;;;;;;;;;6157080;23;20029;-87
2023/05/21 04:15:33;;;;;;;19.48;12.98;;;;;;;;;;6154467;23;20005;-86
2023/05/21 04:17:59;;;;;;;19.85;13.73;;;;;;;;;;6158044;23;20005;-87
2023/05/21 04:20:25;;;;;;;20.15;13.57;;;;;;;;;;6159261;23;20017;-86
2023/05/21 04:22:51;;;;;;;22.38;14.80;;;;;;;;;;6156848;23;20026;-86
2023/05/21 04:25:19;;;;;;;19.92;12.95;;;;;;;;;;6157589;23;20012;-86
2023/05/21 04:27:46;;;;;;;18.40;13.60;;;;;;;;;;6154073;23;20032;-86
2023/05/21 04:30:12;;;;;;;23.95;13.27;;;;;;;;;;6155017;23;20009;-86
2023/05/21 04:32:38;;;;;;;21.27;13.48;;;;;;;;;;6153830;23;20434;-86
2023/05/21 04:35:04;;;;;;;19.15;13.18;;;;;;;;;;6151800;23;20269;-85
2023/05/21 04:37:33;;;;;;;18.77;12.35;;;;;;;;;;6157089;23;20050;-85
2023/05/21 04:40:03;;;;;;;19.08;13.13;;;;;;;;;;6175502;23;19998;-87
2023/05/21 04:42:29;;;;;;;17.65;12.68;;;;;;;;;;6177784;23;19993;-86
2023/05/21 04:44:58;;;;;;;18.35;13.15;;;;;;;;;;6175112;23;20013;-87
2023/05/21 04:47:24;;;;;;;20.08;13.73;;;;;;;;;;6177221;23;20061;-86
2023/05/21 04:49:50;;;;;;;18.80;13.00;;;;;;;;;;6170390;23;20009;-87
2023/05/21 04:52:16;;;;;;;20.08;12.85;;;;;;;;;;6176326;23;19998;-87
2023/05/21 04:54:44;;;;;;;17.05;12.68;;;;;;;;;;6178555;23;20041;-84
2023/05/21 04:57:10;;;;;;;20.20;14.23;;;;;;;;;;6176021;23;19993;-87
2023/05/21 04:59:36;;;;;;;19.77;13.38;;;;;;;;;;6177081;23;20017;-87
2023/05/21 05:02:02;;;;;;;20.58;13.38;;;;;;;;;;6175098;23;20025;-86
2023/05/21 05:04:28;;;;;;;19.10;12.38;;;;;;;;;;6176556;23;20009;-85
2023/05/21 05:06:54;;;;;;;18.58;13.45;;;;;;;;;;6179164;23;20017;-88
2023/05/21 05:09:22;;;;;;;17.02;12.35;;;;;;;;;;6176775;23;20016;-87
2023/05/21 05:11:48;;;;;;;19.75;12.77;;;;;;;;;;6177081;23;20009;-87
2023/05/21 05:14:14;;;;;;;19.08;13.35;;;;;;;;;;6175196;23;20048;-86
2023/05/21 05:16:41;;;;;;;18.08;13.43;;;;;;;;;;6170853;23;20053;-86
2023/05/21 05:19:07;;;;;;;18.60;13.05;;;;;;;;;;6177373;23;20021;-86
2023/05/21 05:21:33;;;;;;;17.55;12.70;;;;;;;;;;6177993;23;20025;-86
2023/05/21 05:23:59;;;;;;;16.88;12.20;;;;;;;;;;6177135;23;20028;-87
2023/05/21 05:26:26;;;;;;;17.52;13.43;;;;;;;;;;6177326;23;20009;-87
2023/05/21 05:28:52;;;;;;;18.40;13.15;;;;;;;;;;6178106;23;19994;-87
2023/05/21 05:31:18;;;;;;;20.50;13.27;;;;;;;;;;6178508;23;20176;-87
2023/05/21 05:33:44;;;;;;;18.48;13.10;;;;;;;;;;6176244;23;20025;-85
2023/05/21 05:36:10;;;;;;;18.80;13.13;;;;;;;;;;6178796;23;20001;-87
2023/05/21 05:38:36;;;;;;;18.15;12.70;;;;;;;;;;6174992;23;20235;-87
2023/05/21 05:41:02;;;;;;;21.35;13.38;;;;;;;;;;6175857;23;20044;-86
2023/05/21 05:43:28;;;;;;;19.92;13.52;;;;;;;;;;6175782;23;20005;-87
2023/05/21 05:45:54;;;;;;;16.90;12.18;;;;;;;;;;6177363;23;20170;-87
2023/05/21 05:48:20;;;;;;;20.70;12.75;;;;;;;;;;6176051;23;19997;-87
2023/05/21 05:50:47;;;;;;;20.73;13.35;;;15.60;99.90;;;;;;6176532;23;20052;-87
2023/05/21 05:53:13;;;;;;;18.00;12.82;;;;;;;;;;6173801;23;20016;-87
2023/05/21 05:55:39;;;;;;;20.73;13.23;;;15.60;99.90;;;;;;6177150;23;20004;-87
2023/05/21 05:58:06;;;;;;;21.30;14.23;;;;;;;;;;6157658;23;20039;-86
2023/05/21 06:00:32;;;;;;;18.42;13.77;;;;;;;;;;6151980;23;20422;-85
2023/05/21 06:02:58;;;;;;;17.13;12.70;;;;;;;;;;6153904;23;20023;-86
2023/05/21 06:05:24;;;;;;;18.33;12.85;;;;;;;;;;6156875;23;20037;-87
2023/05/21 06:07:50;;;;;;;18.65;12.88;;;;;;;;;;6157944;23;20005;-85
2023/05/21 06:10:16;;;;;;;18.80;13.02;;;;;;;;;;6156758;23;20456;-85
2023/05/21 06:12:42;;;;;;;19.20;13.43;;;;;;;;;;6158672;23;20318;-84
2023/05/21 06:15:08;;;;;;;23.77;13.95;;;;;;;;;;6158618;23;20005;-85
2023/05/21 06:17:34;;;;;;;17.33;13.65;;;;;;;;;;6158732;23;20326;-83
2023/05/21 06:20:00;;;;;;;18.92;12.65;;;;;;;;;;6160657;23;20009;-86
2023/05/21 06:22:26;;;;;;;21.45;13.30;;;;;;;;;;6157526;23;20500;-86
2023/05/21 06:24:52;;;;;;;19.20;13.63;;;;;;;;;;6154420;23;20031;-86
2023/05/21 06:27:18;;;;;;;18.08;13.65;;;;;;;;;;6155760;23;20005;-87
2023/05/21 06:29:44;;;;;;;18.92;12.57;;;;;;;;;;6160005;23;20048;-85
2023/05/21 06:32:10;;;;;;;18.42;13.27;;;;;;;;;;6159819;23;20009;-84
2023/05/21 06:34:36;;;;;;;17.63;12.80;;;;;;;;;;6160785;23;20348;-84
2023/05/21 06:37:02;;;;;;;20.13;13.40;;;;;;;;;;6156911;23;20001;-84
2023/05/21 06:39:28;;;;;;;20.67;14.32;;;;;;;;;;6156592;23;20005;-86
2023/05/21 06:41:54;;;;;;;18.73;12.45;;;;;;;;;;6163069;23;20333;-83
2023/05/21 06:44:21;;;;;;;16.67;12.32;;;;;;;;;;6172525;23;20430;-83
2023/05/21 06:46:47;;;;;;;20.58;13.15;;;;;;;;;;6177580;23;20009;-85
2023/05/21 06:49:13;;;;;;;18.70;13.70;;;;;;;;;;6179793;23;19997;-85
2023/05/21 06:51:42;;;;;;;18.63;12.45;;;;;;;;;;6177131;23;20016;-85
2023/05/21 06:54:08;;;;;;;18.65;13.07;;;;;;;;;;6177361;23;19990;-85
2023/05/21 06:56:34;;;;;;;17.83;12.48;;;;;;;;;;6179572;23;20025;-85
2023/05/21 06:59:00;;;;;;;18.05;11.98;;;;;;;;;;6177578;23;20010;-85
2023/05/21 07:01:26;;;;;;;18.65;13.40;;;;;;;;;;6177145;23;20032;-86
2023/05/21 07:03:53;;;;;;;16.27;12.63;;;;;;;;;;6179437;23;19998;-85
2023/05/21 07:06:19;;;;;;;17.17;12.80;;;;;;;;;;6178520;23;20017;-85
2023/05/21 07:08:46;;;;;;;16.15;12.02;;;;;;;;;;6168621;23;20017;-83
2023/05/21 07:11:12;;;;;;;17.42;12.65;;;;;;;;;;6166751;23;20029;-84
2023/05/21 07:13:38;;;;;;;15.65;11.80;;;;;;;;;;6168096;23;20038;-82
2023/05/21 07:16:04;;;;;;;16.50;11.70;;;;;;;;;;6160118;23;20033;-83
2023/05/21 07:18:30;;;;;;;18.38;12.13;;;;;;;;;;6153113;23;20010;-84
2023/05/21 07:20:57;;;;;;;19.00;13.10;;;;;;;;;;6152920;23;20080;-82
2023/05/21 07:23:23;;;;;;;15.68;11.52;;;;;;;;;;6157898;23;20016;-83
2023/05/21 07:25:49;;;;;;;19.08;11.20;;;;;;;;;;6160972;23;20349;-82
2023/05/21 07:28:15;;;;;;;18.48;12.25;;;;;;;;;;6158421;23;20008;-82
2023/05/21 07:30:41;;;;;;;15.95;11.82;;;;;;;;;;6159605;23;20012;-83
2023/05/21 07:33:07;;;;;;;15.13;11.50;;;;;;;;;;6160790;23;20025;-83
2023/05/21 07:35:33;;;;;;;14.98;11.77;;;;;;;;;;6161276;23;20460;-83
2023/05/21 07:37:59;;;;;;;16.98;11.15;;;;;;;;;;6159300;23;20005;-83
2023/05/21 07:40:25;;;;;;;15.27;10.77;;;;;;;;;;6158001;23;20029;-83
2023/05/21 07:42:51;;;;;;;15.63;10.90;;;19.00;99.90;;;;;;6159296;23;20080;-86
2023/05/21 07:45:17;;;;;;;17.63;11.63;;;;;;;;;;6160454;23;20505;-83
2023/05/21 07:47:44;;;;;;;14.98;10.30;;;19.10;99.90;;;;;;6161134;23;20005;-83
2023/05/21 07:50:11;;;;;;;12.45;9.88;;;;;;;;;;6161058;23;20001;-82
2023/05/21 07:52:37;;;;;;;15.77;10.27;;;;;;;;;;6161215;23;20068;-83
2023/05/21 07:55:03;;;;;;;13.57;10.48;;;;;;;;;;6163560;23;20484;-84
2023/05/21 07:57:29;;;;;;;14.55;10.38;;;;;;;;;;6158286;23;20637;-82
2023/05/21 07:59:57;;;;;;;13.27;10.63;;;;;;;;;;6163135;23;20052;-83
2023/05/21 08:02:23;;;;;;;13.23;9.73;;;;;;;;;;6163127;23;20020;-80
2023/05/21 08:04:51;;;;;;;14.35;9.98;;;;;;;;;;6161450;23;20033;-83
2023/05/21 08:07:18;;;;;;;13.00;9.95;;;;;;;;;;6160462;23;20032;-83
2023/05/21 08:09:45;;;;;;;17.38;9.60;;;;;;;;;;6156452;23;20033;-83
2023/05/21 08:12:14;;;;;;;15.20;10.75;;;;;;;;;;6157421;23;20001;-84
2023/05/21 08:14:40;;;;;;;17.23;10.27;;;;;;;;;;6156620;23;20470;-83
2023/05/21 08:17:09;;;;;;;14.93;10.45;;;20.40;99.90;;;;;;6160898;23;20009;-84
2023/05/21 08:19:35;;;;;;;13.48;10.15;;;;;;;;;;6164030;23;20009;-84
2023/05/21 08:22:02;;;;;;;13.27;9.73;;;;;;;;;;6167469;23;20277;-85
2023/05/21 08:24:28;;;;;;;13.52;10.15;;;;;;;;;;6175739;23;20001;-84
2023/05/21 08:26:54;;;;;;;14.35;10.00;;;;;;;;;;6169126;23;20005;-83
2023/05/21 08:29:20;;;;;;;12.77;9.85;;;;;;;;;;6158200;23;20398;-84
2023/05/21 08:31:46;;;;;;;13.55;10.15;;;;;;;;;;6154918;23;20077;-84
2023/05/21 08:34:12;;;;;;;12.20;9.48;;;;;;;;;;6158673;23;20036;-84
2023/05/21 08:36:41;;;;;;;12.75;9.95;;;;;;;;;;6156883;23;20012;-85
2023/05/21 08:39:07;;;;;;;13.38;9.65;;;;;;;;;;6156481;23;20016;-83
2023/05/21 08:41:35;;;;;;;13.43;9.98;;;20.80;99.90;;;;;;6155815;23;20109;-83
2023/05/21 08:44:01;;;;;;;13.00;9.18;;;17.20;99.90;;;;;;6159445;23;20006;-84
2023/05/21 08:46:35;;;;;;;12.55;9.95;;;21.00;99.90;;;;;;6158166;23;20053;-84
2023/05/21 08:49:02;;;;;;;15.82;9.30;;;20.90;99.90;;;;;;6157832;23;20051;-84
2023/05/21 08:51:29;;;;;;;14.30;10.43;;;21.00;99.90;;;;;;6158446;23;20005;-82
2023/05/21 08:53:56;;;;;;;13.13;9.30;;;21.00;99.90;;;;;;6156789;23;20033;-84
2023/05/21 08:56:23;;;;;;;12.63;9.68;;;;;;;;;;6160048;23;20016;-84
2023/05/21 08:58:50;;;;;;;14.10;9.35;;;20.90;99.90;;;;;;6157235;23;20073;-85
2023/05/21 09:01:18;;;;;;;11.73;8.95;;;;;;;;;;6158997;23;20437;-85
2023/05/21 09:03:45;;;;;;;13.63;9.10;;;21.40;99.90;;;;;;6171116;23;20005;-83
2023/05/21 09:06:15;;;;;;;12.45;9.75;;;;;;;;;;6178073;23;20020;-83
2023/05/21 09:08:44;;;;;;;13.02;8.95;;;21.80;99.90;;;;;;6176418;23;19993;-82
2023/05/21 09:11:10;;;;;;;11.55;8.88;;;;;;;;;;6176079;23;19994;-84
2023/05/21 09:13:37;;;;;;;15.23;9.50;;;22.10;99.90;;;;;;6172697;23;20005;-85
2023/05/21 09:16:03;;;;;;;14.55;9.85;;;;;;;;;;6159586;23;20033;-84
2023/05/21 09:18:30;;;;;;;13.07;9.20;;;;;;;;;;6158793;23;20006;-85
2023/05/21 09:20:56;;;;;;;11.80;9.35;;;;;;;;;;6160868;23;20013;-86
2023/05/21 09:23:22;;;;;;;13.13;9.23;;;;;;;;;;6160611;23;20345;-84
2023/05/21 09:25:50;;;;;;;12.50;8.90;;;;;;;;;;6161849;23;20017;-85
2023/05/21 09:28:18;;;;;;;12.80;9.02;;;22.30;99.90;;;;;;6158873;23;20008;-83
2023/05/21 09:30:50;;;;;;;12.02;9.15;;;22.30;99.90;;;;;;6158877;23;20015;-83
2023/05/21 09:33:30;;;;;;;15.52;10.02;;;22.20;99.90;;;;;;6165573;23;20017;-83
2023/05/21 09:35:56;;;;;;;10.45;8.93;;;;;;;;;;6159652;23;20371;-84
2023/05/21 09:38:22;;;;;;;11.73;9.07;;;22.00;99.90;;;;;;6164510;23;20013;-84
2023/05/21 09:40:48;;;;;;;12.02;9.88;;;;;;;;;;6162079;23;20021;-85
2023/05/21 09:43:15;;;;;;;14.57;9.70;;;;;;;;;;6164766;23;20017;-84
2023/05/21 09:45:53;;;;;;;14.68;8.95;;;21.80;99.90;;;;;;6159624;23;20148;-82
2023/05/21 09:48:42;;;;;;;13.65;9.40;;;21.80;99.90;;;;;;6160129;23;20006;-84
2023/05/21 09:51:18;;;;;;;14.75;10.00;;;;;;;;;;6155204;23;20001;-84
2023/05/21 09:53:56;;;;;;;11.45;8.80;;;21.80;99.90;;;;;;6152579;23;20064;-83
2023/05/21 09:56:24;;;;;;;14.90;9.18;;;21.80;99.90;;;;;;6168983;23;20067;-84
2023/05/21 09:58:55;;;;;;;11.25;8.50;;;21.90;99.90;;;;;;6171345;23;20009;-82
2023/05/21 10:01:21;;;;;;;11.30;9.30;;;;;;;;;;6168400;23;19997;-84
2023/05/21 10:03:53;;;;;;;15.73;9.15;;;22.00;99.90;;;;;;6160490;23;20010;-84
2023/05/21 10:06:20;;;;;;;12.05;8.77;;;22.00;99.90;;;;;;6159727;23;20010;-83
2023/05/21 10:08:50;;;;;;;12.32;8.98;;;22.10;99.90;;;;;;6153371;23;20017;-84
2023/05/21 10:11:16;;;;;;;12.88;8.93;;;;;;;;;;6128024;23;20025;-83
2023/05/21 10:13:46;;;;;;;13.35;8.93;;;22.20;99.90;;;;;;6128927;23;20086;-84
2023/05/21 10:16:12;;;;;;;12.73;9.13;;;;;;;;;;6129009;23;20033;-84
2023/05/21 10:18:40;;;;;;;11.93;9.40;;;22.40;99.90;;;;;;6128211;23;20513;-82
2023/05/21 10:21:07;;;;;;;15.50;9.95;;;22.40;99.90;;;;;;6128145;23;20014;-82
2023/05/21 10:23:36;;;;;;;12.48;9.18;;;22.50;99.90;;;;;;6128328;23;20089;-84
2023/05/21 10:26:04;;;;;;;12.40;9.07;;;22.60;99.90;;;;;;6121584;23;20061;-81
2023/05/21 10:28:32;;;;;;;11.20;8.95;;;22.70;99.90;;;;;;6117540;23;20010;-81
2023/05/21 10:30:58;;;;;;;13.40;8.57;;;;;;;;;;6119644;23;20029;-84
2023/05/21 10:33:25;;;;;;;11.75;8.32;;;22.80;99.90;;;;;;6124678;23;20012;-82
2023/05/21 10:35:53;;;;;;;11.23;8.20;;;22.90;99.90;;;;;;6123050;23;20317;-85
2023/05/21 10:38:20;;;;;;;10.15;8.25;;;;;;;;;;6126191;23;20409;-86
2023/05/21 10:40:47;;;;;;;13.35;8.57;;;22.80;99.90;;;;;;6124976;23;20009;-83
2023/05/21 10:43:37;;;;;;;11.23;8.25;;;22.80;99.90;;;;;;6124115;23;20013;-84
2023/05/21 10:46:47;;;;;;;9.65;7.53;;;22.60;99.90;;;;;;6124615;23;20005;-83
2023/05/21 10:49:52;;;;;;;10.20;7.90;;;22.70;99.90;;;;;;6122716;23;20002;-83
2023/05/21 10:52:30;;;;;;;10.38;8.50;;;22.90;99.90;;;;;;6091903;23;20013;-83
2023/05/21 10:55:11;;;;;;;10.57;7.90;;;23.30;99.90;;;;;;6116774;23;20460;-85
2023/05/21 10:58:19;;;;;;;11.52;8.55;;;23.40;99.90;;;;;;6121029;23;20009;-83
2023/05/21 11:00:45;;;;;;;10.73;7.97;;;;;;;;;;6121226;23;20010;-83
2023/05/21 11:03:12;;;;;;;10.88;8.35;;;23.40;99.90;;;;;;6121238;23;20061;-83
2023/05/21 11:05:41;;;;;;;11.20;7.78;;;;;;;;;;6122562;23;20006;-85
2023/05/21 11:08:24;;;;;;;10.75;8.27;;;23.40;99.90;;;;;;6121737;23;20017;-83
2023/05/21 11:10:57;;;;;;;11.98;9.00;;;23.50;99.90;;;;;;6121019;23;20375;-83
2023/05/21 11:13:31;;;;;;;12.15;8.63;;;23.70;99.90;;;;;;6127239;23;20006;-83
2023/05/21 11:15:57;;;;;;;12.40;7.93;;;;;;;;;;6125967;23;20405;-80
2023/05/21 11:18:36;;;;;;;10.45;7.85;;;24.10;99.90;;;;;;6127313;23;20305;-80
2023/05/21 11:21:09;;;;;;;11.63;8.27;;;24.30;99.20;;;;;;6127281;23;20381;-84
2023/05/21 11:23:50;;;;;;;9.80;7.95;;;;;;;;;;6128519;23;20013;-82
2023/05/21 11:26:45;;;;;;;8.60;7.65;;;24.80;98.60;;;;;;6126967;23;20017;-84
2023/05/21 11:29:11;;;;;;;11.38;8.00;;;;;;;;;;6130567;23;20332;-84
2023/05/21 11:31:37;;;;;;;10.10;7.53;;;;;;;;;;6128859;23;20014;-85
2023/05/21 11:34:21;;;;;;;10.18;7.90;;;25.10;99.90;;;;;;6127718;23;20010;-84
2023/05/21 11:36:47;;;;;;;9.10;7.60;;;;;;;;;;6130121;23;20022;-84
2023/05/21 11:39:20;;;;;;;9.90;8.07;;;25.30;97.30;;;;;;6127806;23;20021;-84
2023/05/21 11:42:00;;;;;;;11.50;7.63;;;25.50;97.60;;;;;;6130342;23;20014;-82
2023/05/21 11:44:42;;;;;;;;;;;25.30;97.00;;;;;;6129946;23;20428;-83
2023/05/21 11:47:10;;;;;;;11.45;8.43;;;25.40;96.70;;;;;;6129573;23;20243;-83
2023/05/21 11:49:36;;;;;;;8.68;6.97;;;25.40;95.60;;;;;;6130286;23;20003;-84
2023/05/21 11:52:03;;;;;;;10.65;7.97;;;;;;;;;;6129138;23;20090;-82
2023/05/21 11:54:36;;;;;;;8.98;7.00;;;25.50;95.50;;;;;;6128798;23;20013;-83
2023/05/21 11:57:06;;;;;;;10.48;7.25;;;25.50;95.60;;;;;;6131509;23;20006;-82
2023/05/21 11:59:33;;;;;;;10.20;6.97;;;;;;;;;;6131187;23;20002;-83
2023/05/21 12:01:59;;;;;;;8.57;6.90;;;;;;;;;;6127295;23;20006;-83
2023/05/21 12:04:35;;;;;;;11.18;7.80;;;25.40;96.10;;;;;;6119998;23;20023;-81
2023/05/21 12:07:07;;;;;;;10.23;7.63;;;25.60;98.30;;;;;;6097641;23;20010;-80
2023/05/21 12:09:44;;;;;;;8.00;6.65;;;25.70;95.40;;;;;;6120374;23;20005;-79
2023/05/21 12:12:15;;;;;;;8.63;6.70;;;25.50;95.40;;;;;;6114318;23;20014;-84
2023/05/21 12:14:46;;;;;;;8.98;7.28;;;25.60;95.30;;;;;;6116897;23;20436;-78
2023/05/21 12:17:17;;;;;;;8.43;6.38;;;25.60;94.00;;;;;;6117567;23;20045;-82
2023/05/21 12:19:43;;;;;;;11.52;6.93;;;;;;;;;;6123917;23;20340;-79
2023/05/21 12:22:09;;;;;;;10.38;6.93;;;;;;;;;;6119566;23;20002;-79
2023/05/21 12:24:36;;;;;;;9.68;7.15;;;24.50;92.40;;;;;;6118668;23;20564;-81
2023/05/21 12:27:08;;;;;;;9.98;6.75;;;25.90;92.90;;;;;;6118530;23;20092;-81
2023/05/21 12:29:35;;;;;;;7.70;6.75;;;;;;;;;;6121635;23;20077;-78
2023/05/21 12:32:01;;;;;;;7.93;6.15;;;25.60;92.70;;;;;;6123963;23;20010;-81
2023/05/21 12:34:37;;;;;;;10.75;6.07;;;;;;;;;;6123185;23;20061;-79
2023/05/21 12:37:05;;;;;;;8.38;7.15;;;;;;;;;;6124244;23;20010;-78
2023/05/21 12:39:31;;;;;;;10.75;7.38;;;;;;;;;;6115553;23;20006;-84
2023/05/21 12:41:57;;;;;;;9.10;6.47;;;;;;;;;;6122115;23;20006;-81
2023/05/21 12:44:23;;;;;;;7.68;6.20;;;;;;;;;;6121874;23;19995;-83
2023/05/21 12:46:50;;;;;;;7.47;5.82;;;26.30;91.00;;;;;;6122887;23;20455;-81
2023/05/21 12:49:32;;;;;;;8.05;6.07;;;25.90;92.80;;;;;;6125577;23;20010;-82
2023/05/21 12:51:58;;;;;;;7.85;6.20;;;;;;;;;;6121573;23;20086;-81
2023/05/21 12:54:34;;;;;;;8.52;6.22;;;26.10;91.30;;;;;;6121923;23;20059;-81
2023/05/21 12:57:36;;;;;;;9.85;7.00;;;26.20;93.80;;;;;;6130551;23;20024;-81
2023/05/21 13:00:05;;;;;;;9.60;6.60;;;26.10;90.90;;;;;;6106135;23;20010;-81
2023/05/21 13:02:33;;;;;;;9.45;7.13;;;26.10;91.00;;;;;;6130267;23;20340;-84
2023/05/21 13:05:02;;;;;;;8.07;6.28;;;26.30;90.50;;;;;;6131678;23;20017;-82
2023/05/21 13:07:30;;;;;;;9.30;6.50;;;26.30;90.30;;;;;;6127674;23;20006;-82
2023/05/21 13:09:56;;;;;;;8.73;6.80;;;;;;;;;;6129945;23;20097;-82
2023/05/21 13:12:23;;;;;;;9.35;6.80;;;26.00;90.50;;;;;;6130375;23;20033;-84
2023/05/21 13:14:50;;;;;;;11.93;7.10;;;26.30;90.60;;;;;;6128650;23;20022;-84
2023/05/21 13:17:16;;;;;;;9.68;6.35;;;;;;;;;;6126497;23;20012;-83
2023/05/21 13:19:42;;;;;;;8.45;6.15;;;;;;;;;;6128280;23;20359;-83
2023/05/21 13:22:09;;;;;;;8.52;6.93;;;;;;;;;;6127437;23;20010;-84
2023/05/21 13:24:36;;;;;;;10.40;7.18;;;;;;;;;;6128052;23;20002;-81
2023/05/21 13:27:02;;;;;;;8.20;6.60;;;;;;;;;;6127388;23;20053;-83
2023/05/21 13:29:28;;;;;;;12.15;6.82;;;;;;;;;;6123050;23;20002;-85
2023/05/21 13:31:54;;;;;;;10.15;7.03;;;;;;;;;;6120003;23;20013;-82
2023/05/21 13:34:20;;;;;;;10.25;6.85;;;;;;;;;;6120011;23;20041;-83
2023/05/21 13:36:46;;;;;;;11.80;7.22;;;;;;;;;;6124398;23;20013;-84
2023/05/21 13:39:12;;;;;;;9.00;6.38;;;;;;;;;;6119547;23;20038;-82
2023/05/21 13:41:38;;;;;;;11.10;7.32;;;;;;;;;;6128295;23;20010;-83
2023/05/21 13:44:04;;;;;;;10.95;7.43;;;;;;;;;;6128941;23;20029;-83
2023/05/21 13:46:30;;;;;;;9.25;7.57;;;;;;;;;;6124933;23;20026;-85
2023/05/21 13:48:56;;;;;;;9.68;6.85;;;;;;;;;;6128940;23;20348;-85
2023/05/21 13:51:22;;;;;;;9.18;6.72;;;;;;;;;;6128854;23;20014;-85
2023/05/21 13:53:48;;;;;;;10.55;7.18;;;;;;;;;;6125826;23;20069;-85
2023/05/21 13:56:15;;;;;;;8.90;7.03;;;;;;;;;;6129999;23;20048;-84
2023/05/21 13:58:41;;;;;;;10.00;7.20;;;;;;;;;;6129704;23;20010;-80
2023/05/21 14:01:07;;;;;;;9.48;6.65;;;;;;;;;;6126876;23;20017;-83